Time;durP1;ratioP1;P1;durP2;ratioP2;P2;SDS_P1;SDS_P2;PMS_P1;PMS_P2;Temp;Humidity;BMP_temperature;BMP_pressure;BME280_temperature;BME280_humidity;BME280_pressure;Samples;Min_cycle;Max_cycle;Signal;HPM_P1;HPM_P2
2022/03/23 03:07:28;;;;;;;30.90;11.70;;;;;;;0.71;57.27;95794.38;6079183;23;20006;31
2022/03/23 03:09:56;;;;;;;23.80;10.15;;;;;;;0.77;56.55;95791.13;4925068;29;20071;-93
2022/03/23 03:12:22;;;;;;;19.38;10.18;;;;;;;0.82;55.73;95794.00;4927049;29;20078;-92
2022/03/23 03:14:48;;;;;;;22.73;10.23;;;;;;;0.86;55.89;95803.97;4942479;29;20534;-93
2022/03/23 03:17:13;;;;;;;26.05;10.55;;;;;;;0.76;55.32;95807.56;4942175;29;20359;-92
2022/03/23 03:19:39;;;;;;;24.80;11.07;;;;;;;0.99;54.90;95805.00;4936593;28;20113;-92
2022/03/23 03:22:05;;;;;;;19.25;9.30;;;;;;;0.96;54.98;95809.75;4961722;28;20027;-94
2022/03/23 03:24:31;;;;;;;21.02;9.20;;;;;;;1.08;53.68;95807.56;4963403;28;20376;-93
2022/03/23 03:26:57;;;;;;;21.63;9.77;;;;;;;1.20;53.15;95807.94;4940752;28;20089;-91
2022/03/23 03:29:23;;;;;;;22.95;9.52;;;;;;;1.24;52.59;95799.69;4961813;28;20030;-92
2022/03/23 03:31:51;;;;;;;22.42;10.20;;;;;;;1.31;52.76;95796.44;4934470;29;20437;-94
2022/03/23 03:34:17;;;;;;;23.27;10.27;;;;;;;0.95;54.67;95798.59;4907837;29;20032;-92
2022/03/23 03:36:47;;;;;;;24.50;10.60;;;;;;;0.91;54.54;95794.75;4923208;29;20388;-92
2022/03/23 03:39:15;;;;;;;20.98;10.50;;;;;;;0.89;54.22;95801.88;4907376;29;20330;-92
2022/03/23 03:41:41;;;;;;;25.67;10.60;;;;;;;0.92;54.05;95795.53;4938754;29;20027;-92
2022/03/23 03:44:07;;;;;;;18.05;8.95;;;;;;;0.76;55.24;95793.88;4922736;29;20028;-92
2022/03/23 03:46:33;;;;;;;25.42;10.35;;;;;;;0.53;55.66;95798.03;4923136;29;20028;-92
2022/03/23 03:48:59;;;;;;;24.10;10.57;;;;;;;0.54;55.57;95801.41;4923165;29;20345;-93
2022/03/23 03:51:24;;;;;;;22.80;11.40;;;;;;;0.55;55.60;95798.66;4923307;29;20027;-92
2022/03/23 03:53:52;;;;;;;19.50;9.48;;;;;;;0.54;56.45;95793.66;4923081;29;20031;-93
2022/03/23 03:56:17;;;;;;;23.70;11.02;;;;;;;0.38;55.94;95797.91;4922585;29;20464;-91
2022/03/23 03:58:43;;;;;;;25.88;10.90;;;;;;;0.28;55.93;95799.88;4923035;29;20078;-93
2022/03/23 04:01:10;;;;;;;21.83;10.13;;;;;;;0.38;55.76;95797.91;4906910;29;20054;-93
2022/03/23 04:03:35;;;;;;;24.45;9.75;;;;;;;0.43;55.65;95800.00;4923137;29;20031;-92
2022/03/23 04:06:01;;;;;;;18.23;9.30;;;;;;;0.62;54.65;95788.47;4922801;29;20039;-91
2022/03/23 04:08:26;;;;;;;20.17;8.73;;;;;;;0.89;54.13;95799.28;4907439;29;20035;-92
2022/03/23 04:10:52;;;;;;;22.25;9.48;;;;;;;1.24;52.65;95797.13;4907292;29;20031;-91
2022/03/23 04:13:18;;;;;;;22.90;9.63;;;;;;;1.43;51.84;95789.06;4923072;29;20328;-92
2022/03/23 04:15:43;;;;;;;21.45;9.63;;;;;;;1.65;51.16;95800.34;4922988;29;20038;-93
2022/03/23 04:18:41;;;;;;;16.77;9.13;;;;;;;1.93;50.80;95797.19;4906901;29;20087;-93
2022/03/23 04:21:07;;;;;;;19.33;8.63;;;;;;;1.89;50.15;95804.47;4922848;29;20027;-92
2022/03/23 04:23:36;;;;;;;21.92;8.95;;;;;;;2.05;50.12;95797.53;4907225;29;20050;-92
2022/03/23 04:26:02;;;;;;;21.48;9.77;;;;;;;2.07;49.54;95793.81;4922893;29;20024;-92
2022/03/23 04:28:28;;;;;;;21.17;9.57;;;;;;;2.06;49.00;95788.78;4938586;29;20122;-92
2022/03/23 04:30:54;;;;;;;18.30;8.60;;;;;;;1.97;49.65;95788.09;4942259;29;20023;-93
2022/03/23 04:33:19;;;;;;;19.63;9.25;;;;;;;1.76;49.84;95792.16;4926362;29;20031;-94
2022/03/23 04:35:45;;;;;;;21.13;9.23;;;;;;;1.38;51.21;95799.91;4926416;29;20034;-92
2022/03/23 04:38:11;;;;;;;23.65;9.80;;;;;;;1.21;51.70;95800.03;4926645;29;20074;-92
2022/03/23 04:40:37;;;;;;;16.95;8.77;;;;;;;0.91;52.60;95796.53;4926113;29;20031;-92
2022/03/23 04:43:02;;;;;;;20.00;8.65;;;;;;;0.80;52.83;95795.97;4910259;29;20035;-92
2022/03/23 04:45:28;;;;;;;20.83;8.93;;;;;;;0.65;52.58;95801.03;4926028;29;20122;-92
2022/03/23 04:47:54;;;;;;;21.00;9.02;;;;;;;0.60;52.86;95805.91;4926376;29;20023;-91
2022/03/23 04:50:20;;;;;;;19.17;8.38;;;;;;;0.75;51.84;95800.81;4926388;29;20126;-93
2022/03/23 04:52:46;;;;;;;18.88;8.68;;;;;;;0.65;53.05;95808.75;4910599;29;20532;-92
2022/03/23 04:55:14;;;;;;;17.83;8.27;;;;;;;0.73;52.40;95797.59;4925993;29;20389;-92
2022/03/23 04:57:42;;;;;;;16.35;8.43;;;;;;;0.98;50.97;95808.56;4942745;29;20122;-92
2022/03/23 05:00:10;;;;;;;23.23;8.23;;;;;;;1.43;50.02;95807.94;4926192;29;20027;-92
2022/03/23 05:02:39;;;;;;;21.00;9.20;;;;;;;1.42;49.91;95806.34;4910438;29;20027;-92
2022/03/23 05:05:12;;;;;;;16.88;8.30;;;;;;;1.71;49.46;95811.75;4910513;29;20028;-90
2022/03/23 05:07:38;;;;;;;22.33;8.32;;;;;;;1.62;49.71;95817.00;4926084;29;20038;-90
2022/03/23 05:10:04;;;;;;;18.45;9.00;;;;;;;1.47;49.68;95816.16;4909809;29;20340;-90
2022/03/23 05:12:30;;;;;;;17.67;8.40;;;;;;;1.47;50.11;95823.91;4925661;29;20038;-92
2022/03/23 05:14:56;;;;;;;16.85;8.10;;;;;;;1.35;49.99;95821.72;4925414;29;20032;-90
2022/03/23 05:17:22;;;;;;;23.35;8.32;;;;;;;1.29;50.91;95814.69;4925372;29;20038;-90
2022/03/23 05:19:47;;;;;;;17.52;8.77;;;;;;;1.39;50.15;95809.28;4924406;29;20156;-90
2022/03/23 05:22:13;;;;;;;20.85;9.32;;;;;;;1.05;51.57;95813.06;4909122;29;20408;-90
2022/03/23 05:24:42;;;;;;;20.00;7.82;;;;;;;0.98;51.77;95818.09;4925467;29;20027;-91
2022/03/23 05:27:11;;;;;;;16.08;7.88;;;;;;;0.79;51.61;95814.19;4925241;29;20031;-90
2022/03/23 05:29:37;;;;;;;17.52;8.27;;;;;;;0.87;51.31;95818.50;4925553;29;20082;-90
2022/03/23 05:32:03;;;;;;;16.48;8.00;;;;;;;0.78;51.60;95812.56;4909281;29;20068;-90
2022/03/23 05:34:29;;;;;;;21.73;9.25;;;;;;;0.97;52.77;95812.13;4941673;29;20437;-90
2022/03/23 05:36:55;;;;;;;18.10;8.27;;;;;;;1.04;50.77;95812.25;4925020;29;20126;-90
2022/03/23 05:39:20;;;;;;;17.58;8.60;;;;;;;1.34;51.14;95811.56;4909178;29;20032;-92
2022/03/23 05:41:45;;;;;;;18.83;8.63;;;;;;;1.17;52.39;95818.63;4925178;29;20074;-90
2022/03/23 05:44:12;;;;;;;18.45;8.60;;;;;;;1.06;54.08;95810.28;4940450;29;20041;-91
2022/03/23 05:46:37;;;;;;;18.40;8.77;;;;;;;1.14;51.85;95809.44;4941969;29;20146;-91
2022/03/23 05:49:03;;;;;;;17.02;7.68;;;;;;;1.28;50.69;95807.91;4924705;29;20457;-91
2022/03/23 05:51:29;;;;;;;17.40;8.32;;;;;;;1.34;50.58;95811.56;4957749;28;20347;-91
2022/03/23 05:53:54;;;;;;;22.85;8.80;;;;;;;1.35;51.63;95808.03;4957101;29;20481;-91
2022/03/23 05:56:20;;;;;;;19.35;8.27;;;;;;;1.65;51.76;95813.25;4958614;28;20043;-91
2022/03/23 05:58:46;;;;;;;18.23;8.50;;;;;;;1.73;49.81;95808.03;4951979;29;20432;-90
2022/03/23 06:01:11;;;;;;;20.20;8.80;;;;;;;1.84;49.64;95807.59;4943290;29;20034;-91
2022/03/23 06:03:37;;;;;;;17.45;8.25;;;;;;;2.21;47.49;95812.88;4943488;29;20345;-91
2022/03/23 06:06:03;;;;;;;15.27;7.90;;;;;;;2.54;46.98;95816.88;4940097;28;20458;-91
2022/03/23 06:08:28;;;;;;;18.23;7.90;;;;;;;2.61;46.60;95807.41;4927185;29;20451;-91
2022/03/23 06:10:54;;;;;;;16.40;7.85;;;;;;;2.73;46.83;95815.50;4927271;29;20035;-90
2022/03/23 06:13:20;;;;;;;21.73;8.77;;;;;;;2.67;47.07;95805.91;4927554;29;20050;-90
2022/03/23 06:15:46;;;;;;;19.40;8.60;;;;;;;2.91;45.79;95822.88;4943141;29;20034;-91
2022/03/23 06:18:12;;;;;;;18.73;7.93;;;;;;;3.14;45.64;95823.72;4959214;29;20027;-90
2022/03/23 06:20:38;;;;;;;16.20;7.93;;;;;;;3.22;44.68;95824.41;4927247;29;20094;-91
2022/03/23 06:23:03;;;;;;;16.98;8.10;;;;;;;3.24;45.12;95819.81;4927084;29;20031;-90
2022/03/23 06:25:30;;;;;;;15.80;7.15;;;;;;;3.43;44.20;95819.41;4927090;29;20035;-92
2022/03/23 06:27:56;;;;;;;16.33;7.78;;;;;;;3.49;44.58;95814.28;4943088;29;20027;-91
2022/03/23 06:30:22;;;;;;;19.58;7.60;;;;;;;3.59;47.05;95818.34;4943204;29;20038;-91
2022/03/23 06:32:48;;;;;;;15.05;7.97;;;;;;;3.73;47.28;95814.88;4942804;29;20066;-90
2022/03/23 06:35:14;;;;;;;15.30;7.15;;;;;;;3.74;46.89;95813.88;4960230;29;20314;-90
2022/03/23 06:37:40;;;;;;;17.13;7.55;;;;;;;3.89;43.75;95807.81;4942704;29;20038;-90
2022/03/23 06:40:06;;;;;;;16.77;8.07;;;;;;;3.80;44.65;95812.31;4942255;29;20034;-92
2022/03/23 06:42:32;;;;;;;19.95;8.68;;;;;;;3.95;44.44;95804.44;4942705;29;20031;-91
2022/03/23 06:44:57;;;;;;;15.65;7.90;;;;;;;4.04;46.53;95805.09;4942622;29;20348;-91
2022/03/23 06:47:23;;;;;;;23.77;8.68;;;;;;;4.08;48.67;95812.31;4926646;29;20043;-91
2022/03/23 06:49:49;;;;;;;19.10;9.13;;;;;;;3.83;50.45;95809.34;4942120;29;20042;-90
2022/03/23 06:52:15;;;;;;;19.55;9.50;;;;;;;3.50;47.44;95815.06;4941984;29;20031;-91
2022/03/23 06:54:41;;;;;;;17.17;9.60;;;;;;;3.85;47.85;95819.53;4927030;29;20091;-91
2022/03/23 06:57:06;;;;;;;23.95;10.18;;;;;;;3.76;48.55;95814.50;4959477;29;20035;-91
2022/03/23 06:59:32;;;;;;;21.98;9.05;;;;;;;3.60;51.05;95814.78;4926753;29;20062;-92
2022/03/23 07:01:58;;;;;;;20.88;9.45;;;;;;;3.52;52.50;95819.09;4926693;29;20035;-90
2022/03/23 07:04:24;;;;;;;25.33;9.20;;;;;;;3.68;49.91;95818.03;4926663;29;20031;-91
2022/03/23 07:06:53;;;;;;;16.98;8.93;;;;;;;3.90;49.31;95817.97;4959344;29;20027;-91
2022/03/23 07:09:31;;;;;;;17.35;9.32;;;;;;;4.00;51.70;95820.22;4926511;29;20037;-90
2022/03/23 07:12:00;;;;;;;19.40;8.73;;;;;;;4.06;51.49;95819.47;4943756;29;20038;-89
2022/03/23 07:14:30;;;;;;;23.23;9.00;;;;;;;4.20;50.52;95825.53;4926907;29;20035;-91
2022/03/23 07:16:56;;;;;;;16.63;8.52;;;;;;;4.18;50.11;95829.34;4926334;29;20039;-90
2022/03/23 07:19:22;;;;;;;17.38;8.55;;;;;;;4.13;51.09;95823.91;4926262;29;20114;-90
2022/03/23 07:21:48;;;;;;;15.50;8.07;;;;;;;4.13;51.28;95823.91;4926077;29;20121;-91
2022/03/23 07:24:14;;;;;;;17.52;8.05;;;;;;;4.23;51.62;95820.00;4926269;29;20170;-91
2022/03/23 07:26:39;;;;;;;17.15;9.10;;;;;;;4.26;51.05;95823.97;4942211;29;20034;-90
2022/03/23 07:29:49;;;;;;;19.92;9.13;;;;;;;4.41;51.48;95823.06;4941738;29;20364;-91
2022/03/23 07:32:14;;;;;;;17.30;8.52;;;;;;;4.57;51.77;95829.75;4942026;29;20175;-91
2022/03/23 07:34:40;;;;;;;18.02;8.60;;;;;;;4.79;49.66;95827.84;4926177;29;20444;-90
2022/03/23 07:37:05;;;;;;;16.60;8.18;;;;;;;4.79;49.87;95825.25;4925607;29;20344;-89
2022/03/23 07:39:31;;;;;;;20.65;9.20;;;;;;;4.86;48.47;95826.03;4942377;29;20030;-90
2022/03/23 07:41:57;;;;;;;19.38;10.20;;;;;;;4.90;47.06;95831.66;4926080;29;20031;-90
2022/03/23 07:44:23;;;;;;;19.20;9.15;;;;;;;4.98;46.52;95830.69;4925370;29;20045;-90
2022/03/23 07:46:49;;;;;;;16.98;9.02;;;;;;;5.03;46.51;95834.31;4959028;29;20027;-90
2022/03/23 07:49:21;;;;;;;19.27;9.32;;;;;;;5.19;47.60;95837.53;4957726;29;20504;-89
2022/03/23 07:51:47;;;;;;;19.17;9.27;;;;;;;5.24;48.78;95833.34;4957366;29;20035;-89
2022/03/23 07:54:12;;;;;;;16.48;8.52;;;;;;;5.27;48.18;95831.34;4941955;29;20125;-90
2022/03/23 07:56:38;;;;;;;19.70;8.73;;;;;;;5.41;49.70;95832.19;4925847;29;20039;-90
2022/03/23 07:59:05;;;;;;;17.95;9.38;;;;;;;5.62;48.02;95831.22;4925858;29;20090;-90
2022/03/23 08:01:31;;;;;;;19.52;8.63;;;;;;;5.68;47.77;95829.63;4925806;29;20344;-89
2022/03/23 08:03:56;;;;;;;22.70;9.65;;;;;;;5.84;47.37;95833.59;4927166;29;20035;-90
2022/03/23 08:06:22;;;;;;;19.23;9.07;;;;;;;6.12;48.91;95837.81;4945225;29;20130;-90
2022/03/23 08:08:48;;;;;;;19.85;9.65;;;;;;;6.26;47.76;95833.41;4945563;29;20106;-90
2022/03/23 08:11:13;;;;;;;14.35;8.27;;;;;;;6.31;47.09;95833.59;4961417;29;20035;-90
2022/03/23 08:13:38;;;;;;;17.17;8.95;;;;;;;6.50;45.05;95837.94;4929492;29;20125;-90
2022/03/23 08:16:05;;;;;;;16.70;8.75;;;;;;;6.54;47.47;95838.34;4945094;29;20437;-90
2022/03/23 08:18:36;;;;;;;17.73;8.93;;;;;;;6.61;46.65;95844.34;4945356;29;20031;-90
2022/03/23 08:21:01;;;;;;;19.90;8.98;;;;;;;6.63;44.15;95842.31;4944983;29;20027;-90
2022/03/23 08:23:29;;;;;;;18.38;8.75;;;;;;;6.61;44.56;95833.09;4962147;29;20035;-89
2022/03/23 08:25:55;;;;;;;18.67;8.85;;;;;;;6.73;43.17;95835.88;4945525;29;20027;-90
2022/03/23 08:28:20;;;;;;;15.50;8.40;;;;;;;6.84;45.14;95832.63;4944984;29;20023;-90
2022/03/23 08:30:46;;;;;;;18.83;9.10;;;;;;;6.93;46.90;95833.19;4928564;29;20035;-89
2022/03/23 08:33:12;;;;;;;19.33;8.73;;;;;;;6.99;46.17;95824.56;4945078;29;20122;-90
2022/03/23 08:35:37;;;;;;;17.27;8.50;;;;;;;7.03;45.49;95827.53;4945095;29;20588;-90
2022/03/23 08:38:04;;;;;;;18.17;8.65;;;;;;;7.13;43.81;95832.31;4928693;29;20118;-90
2022/03/23 08:40:29;;;;;;;17.38;9.48;;;;;;;7.41;44.57;95831.94;4928988;29;20509;-90
2022/03/23 08:42:57;;;;;;;20.83;9.15;;;;;;;7.61;43.59;95833.63;4928820;29;20277;-90
2022/03/23 08:45:22;;;;;;;17.85;9.10;;;;;;;7.54;43.73;95830.25;4961896;29;20038;-90
2022/03/23 08:47:49;;;;;;;27.98;9.32;;;;;;;7.75;45.21;95836.91;4928531;29;20110;-90
2022/03/23 08:50:15;;;;;;;19.13;9.18;;;;;;;7.62;42.11;95828.16;4944728;29;20038;-90
2022/03/23 08:52:41;;;;;;;19.63;8.90;;;;;;;7.87;44.58;95823.97;4944809;29;20031;-91
2022/03/23 08:55:09;;;;;;;23.02;8.80;;;;;;;7.81;44.04;95830.06;4928493;29;20396;-91
2022/03/23 08:57:36;;;;;;;21.65;9.18;;;;;;;7.93;45.79;95826.53;4944665;29;20117;-91
2022/03/23 09:00:05;;;;;;;15.75;8.43;;;;;;;8.07;41.24;95824.59;4928512;29;20031;-90
2022/03/23 09:02:31;;;;;;;19.65;9.68;;;;;;;8.22;41.73;95826.06;4929053;29;20031;-90
2022/03/23 09:04:56;;;;;;;20.17;10.07;;;;;;;8.13;41.56;95828.16;4928221;29;20478;-90
2022/03/23 09:07:23;;;;;;;15.93;8.68;;;;;;;8.12;42.03;95823.97;4944310;29;20036;-90
2022/03/23 09:09:48;;;;;;;17.27;9.35;;;;;;;8.26;42.09;95826.44;4960358;29;20115;-90
2022/03/23 09:12:13;;;;;;;17.50;8.93;;;;;;;8.54;43.33;95825.97;4928159;29;20039;-90
2022/03/23 09:14:39;;;;;;;18.40;9.15;;;;;;;8.48;41.84;95813.78;4943616;29;20436;-90
2022/03/23 09:17:05;;;;;;;19.67;9.60;;;;;;;8.66;39.66;95820.81;4928455;29;20086;-90
2022/03/23 09:19:31;;;;;;;15.98;9.35;;;;;;;8.71;42.42;95822.78;4928626;29;20388;-90
2022/03/23 09:21:59;;;;;;;21.50;10.35;;;;;;;8.74;41.70;95820.53;4928206;29;20027;-90
2022/03/23 09:24:28;;;;;;;24.33;10.95;;;;;;;8.60;41.55;95822.47;4944339;29;20034;-90
2022/03/23 09:26:54;;;;;;;17.13;9.85;;;;;;;8.68;42.71;95821.41;4943536;29;20470;-91
2022/03/23 09:29:20;;;;;;;20.75;9.60;;;;;;;8.86;43.63;95815.34;4943978;29;20109;-89
2022/03/23 09:31:46;;;;;;;19.90;10.00;;;;;;;8.93;42.20;95819.72;4927922;29;20027;-90
2022/03/23 09:34:11;;;;;;;19.50;10.52;;;;;;;9.09;39.59;95828.75;4944116;29;20388;-90
2022/03/23 09:42:43;;;;;;;15.80;9.23;;;;;;;9.30;40.45;95819.63;4960774;29;20356;-91
2022/03/23 09:45:12;;;;;;;23.17;9.77;;;;;;;9.29;40.47;95824.06;4927992;29;20507;-90
2022/03/23 09:47:38;;;;;;;19.95;10.07;;;;;;;9.33;40.41;95816.56;4928330;29;20035;-90
2022/03/23 09:50:04;;;;;;;21.50;10.65;;;;;;;9.47;40.52;95819.78;4958982;29;20043;-91
2022/03/23 09:52:29;;;;;;;19.20;9.70;;;;;;;9.62;40.52;95814.13;4927522;29;20031;-90
2022/03/23 09:54:55;;;;;;;22.58;9.68;;;;;;;9.65;38.60;95811.06;4943421;29;20031;-90
2022/03/23 09:57:32;;;;;;;17.77;9.57;;;;;;;9.78;37.95;95812.66;4927424;29;20040;-90
2022/03/23 09:59:57;;;;;;;22.10;9.52;;;;;;;9.92;36.77;95810.63;4927469;29;20034;-90
2022/03/23 10:03:07;;;;;;;18.35;9.20;;;;;;;10.70;34.95;95807.06;4943569;29;20094;-90
2022/03/23 10:05:45;;;;;;;18.35;9.10;;;;;;;11.02;36.21;95812.66;4905043;29;20039;-92
2022/03/23 10:08:48;;;;;;;17.13;9.38;;;;;;;10.88;32.31;95811.34;4960185;29;20083;-90
2022/03/23 10:11:46;;;;;;;17.88;9.25;;;;;;;10.61;33.89;95809.25;4943203;29;20038;-90
2022/03/23 10:14:48;;;;;;;17.75;9.05;;;;;;;11.01;32.84;95803.19;4943348;29;20038;-90
2022/03/23 10:17:59;;;;;;;17.38;9.32;;;;;;;11.01;31.49;95799.78;4943730;29;20031;-90
2022/03/23 10:20:24;;;;;;;15.80;8.27;;;;;;;10.89;33.37;95799.81;4913930;29;20035;-91
2022/03/23 10:22:53;;;;;;;17.95;8.82;;;;;;;10.82;33.02;95801.78;4926925;29;20098;-91
2022/03/23 10:25:20;;;;;;;15.32;8.88;;;;;;;11.02;32.61;95796.13;4926903;29;20030;-90
2022/03/23 10:27:47;;;;;;;17.58;9.45;;;;;;;10.97;34.50;95798.66;4926664;29;20023;-89
2022/03/23 10:30:16;;;;;;;18.38;9.70;;;;;;;10.87;35.22;95797.41;4942728;29;20340;-90
2022/03/23 10:32:42;;;;;;;16.33;8.75;;;;;;;10.89;33.10;95794.56;4927176;29;20023;-91
2022/03/23 10:35:13;;;;;;;16.23;8.73;;;;;;;10.81;34.98;95787.88;4927056;29;20031;-91
2022/03/23 10:37:40;;;;;;;21.17;9.60;;;;;;;10.59;33.03;95787.72;4939990;29;20042;-91
2022/03/23 10:40:14;;;;;;;17.80;9.75;;;;;;;10.95;36.28;95785.75;4926514;29;20444;-91
2022/03/23 10:42:41;;;;;;;14.00;8.93;;;;;;;10.96;34.01;95781.31;4926831;29;20031;-91
2022/03/23 10:45:11;;;;;;;18.88;9.70;;;;;;;10.92;33.17;95780.22;4942575;29;20027;-90
2022/03/23 10:47:38;;;;;;;20.00;9.63;;;;;;;11.22;32.81;95776.53;4927541;29;20313;-90
2022/03/23 10:50:07;;;;;;;14.75;8.88;;;;;;;11.40;32.54;95773.69;4942191;29;20034;-89
2022/03/23 10:52:33;;;;;;;19.25;9.38;;;;;;;11.76;32.19;95777.91;4942625;29;20031;-90
2022/03/23 10:55:00;;;;;;;17.88;9.38;;;;;;;11.37;34.27;95781.25;4926940;29;20038;-90
2022/03/23 10:57:44;;;;;;;16.88;9.20;;;;;;;11.40;34.05;95775.50;4926909;29;20504;-91
2022/03/23 11:00:18;;;;;;;;;;;;;;;11.34;32.47;95765.97;4959542;29;20086;-91
2022/03/23 11:02:48;;;;;;;22.77;10.00;;;;;;;11.40;38.54;95770.25;4942732;29;20265;-90
2022/03/23 11:05:47;;;;;;;23.88;10.98;;;;;;;11.59;35.96;95771.66;4926434;29;20031;-89
2022/03/23 11:08:18;;;;;;;20.13;9.98;;;;;;;11.81;36.19;95776.16;4911305;29;20138;-91
2022/03/23 11:16:31;;;;;;;17.23;9.88;;;;;;;11.48;32.37;95764.63;4944515;29;20127;-89
2022/03/23 11:19:12;;;;;;;30.23;10.18;;;;;;;11.35;31.98;95744.75;4927640;29;20118;-91
2022/03/23 11:22:11;;;;;;;25.83;10.35;;;;;;;11.59;33.62;95757.72;4958866;29;20514;-89
2022/03/23 11:24:40;;;;;;;20.38;10.25;;;;;;;11.85;33.97;95755.47;4942266;29;20031;-90
2022/03/23 11:27:08;;;;;;;21.85;10.95;;;;;;;11.92;32.62;95756.13;4942007;29;20448;-90
2022/03/23 11:29:35;;;;;;;19.50;11.23;;;;;;;11.68;33.91;95751.03;4926409;29;20440;-90
2022/03/23 11:32:08;;;;;;;20.40;10.18;;;;;;;11.84;33.90;95738.13;4925962;29;20038;-90
2022/03/23 11:34:36;;;;;;;19.17;11.10;;;;;;;11.89;31.80;95738.19;4941992;29;20536;-90
2022/03/23 11:37:03;;;;;;;29.92;11.57;;;;;;;12.01;32.32;95728.41;4942278;29;20038;-91
2022/03/23 11:39:30;;;;;;;20.90;11.10;;;;;;;11.75;31.71;95735.13;4922693;29;20031;-90
2022/03/23 11:41:56;;;;;;;21.33;11.07;;;;;;;11.52;32.18;95733.47;4922330;29;20046;-89
2022/03/23 11:44:21;;;;;;;20.55;11.60;;;;;;;11.57;33.21;95728.28;4922930;29;20024;-90
2022/03/23 11:46:48;;;;;;;18.38;10.40;;;;;;;11.53;32.07;95730.59;4922800;29;20027;-90
2022/03/23 11:49:38;;;;;;;20.92;11.05;;;;;;;11.53;32.70;95722.72;4922710;29;20024;-90
2022/03/23 11:52:28;;;;;;;27.23;11.57;;;;;;;12.07;34.37;95708.25;4939523;29;20347;-91
2022/03/23 11:57:54;;;;;;;21.45;11.02;;;;;;;11.99;32.39;95714.69;4925067;29;20042;-90
2022/03/23 12:00:37;;;;;;;23.52;11.63;;;;;;;12.17;31.50;95707.59;4938358;29;20031;-90
2022/03/23 12:03:03;;;;;;;24.43;11.37;;;;;;;12.23;31.75;95698.75;4922754;29;20020;-89
2022/03/23 12:05:31;;;;;;;20.67;11.05;;;;;;;12.12;32.08;95697.03;4929729;29;20281;-91
2022/03/23 12:07:57;;;;;;;26.23;12.75;;;;;;;11.94;32.92;95693.63;4957563;28;20027;-90
2022/03/23 12:10:32;;;;;;;20.35;12.32;;;;;;;12.01;32.30;95696.09;4941305;29;20370;-89
2022/03/23 12:13:17;;;;;;;23.77;12.38;;;;;;;12.07;32.26;95683.84;4957674;29;20437;-91
2022/03/23 12:15:59;;;;;;;20.48;11.85;;;;;;;12.21;32.80;95685.06;4957418;29;20113;-90
2022/03/23 12:18:41;;;;;;;26.90;12.85;;;;;;;12.54;33.01;95677.25;4957351;29;20086;-90
2022/03/23 12:21:10;;;;;;;21.63;12.95;;;;;;;12.25;31.99;95680.91;4957154;29;20023;-90
2022/03/23 12:24:01;;;;;;;23.50;13.15;;;;;;;12.49;33.75;95675.38;4957857;28;20336;-90
2022/03/23 12:26:34;;;;;;;23.95;12.95;;;;;;;12.63;32.56;95667.91;4956930;29;20038;-90
2022/03/23 12:29:13;;;;;;;24.73;13.57;;;;;;;12.92;33.32;95658.97;4957271;28;20023;-89
2022/03/23 12:31:40;;;;;;;22.92;13.57;;;;;;;13.03;31.67;95662.47;4957527;28;20034;-90
2022/03/23 12:34:10;;;;;;;21.20;13.18;;;;;;;12.85;31.51;95657.31;4957346;29;20031;-90
2022/03/23 12:36:57;;;;;;;24.67;13.73;;;;;;;12.88;36.00;95661.28;4957564;28;20042;-91
2022/03/23 12:39:36;;;;;;;24.15;12.30;;;;;;;12.89;32.32;95654.19;4957242;29;20143;-90
2022/03/23 12:42:11;;;;;;;27.40;13.20;;;;;;;12.91;31.72;95652.91;4957028;29;20035;-90
2022/03/23 12:44:40;;;;;;;26.40;13.95;;;;;;;12.85;31.27;95656.53;4957284;29;20031;-90
2022/03/23 12:47:17;;;;;;;40.60;14.05;;;;;;;12.49;31.83;95656.19;4956958;29;20059;-90
2022/03/23 12:58:25;;;;;;;24.60;13.13;;;;;;;12.58;30.76;95642.34;4926274;28;20089;-90
2022/03/23 13:00:53;;;;;;;25.27;13.35;;;;;;;12.71;33.10;95630.66;4960221;29;20064;-91
2022/03/23 13:03:41;;;;;;;26.88;13.73;;;;;;;12.94;32.53;95641.09;4960548;29;20023;-90
2022/03/23 13:06:09;;;;;;;24.48;13.25;;;;;;;13.13;30.35;95628.34;4960486;29;20031;-90
2022/03/23 13:08:38;;;;;;;24.55;13.10;;;;;;;13.21;31.14;95627.88;4960290;29;20034;-90
2022/03/23 13:11:07;;;;;;;24.52;13.10;;;;;;;13.35;31.78;95632.69;4960455;28;20027;-90
2022/03/23 13:13:37;;;;;;;24.10;13.48;;;;;;;13.47;32.56;95637.81;4960431;28;20401;-91
2022/03/23 13:16:14;;;;;;;25.23;13.48;;;;;;;13.57;30.63;95629.97;4960706;29;20030;-90
2022/03/23 13:18:40;;;;;;;28.38;14.18;;;;;;;13.38;31.45;95627.72;4944339;29;20037;-91
2022/03/23 13:21:11;;;;;;;29.48;14.63;;;;;;;13.11;31.40;95620.72;4944282;29;20118;-90
2022/03/23 13:23:41;;;;;;;24.70;14.38;;;;;;;13.21;30.62;95617.34;4960165;29;20031;-91
2022/03/23 13:26:12;;;;;;;25.85;13.15;;;;;;;13.07;30.36;95614.38;4947811;29;20031;-90
2022/03/23 13:28:46;;;;;;;25.33;13.13;;;;;;;13.39;33.19;95615.34;4925053;29;20042;-91
2022/03/23 13:31:12;;;;;;;;;;;;;;;13.41;30.52;95613.25;4960993;28;20104;-90
2022/03/23 13:33:48;;;;;;;22.77;12.85;;;;;;;13.67;30.70;95610.78;4950993;29;20332;-91
2022/03/23 13:36:16;;;;;;;24.50;12.85;;;;;;;13.68;30.91;95607.91;4909750;29;20060;-91
2022/03/23 13:38:47;;;;;;;21.80;13.30;;;;;;;13.62;31.06;95603.66;4909158;29;20028;-90
2022/03/23 13:43:59;;;;;;;28.45;13.70;;;;;;;13.50;30.15;95590.72;4927438;29;20360;-91
2022/03/23 13:46:28;;;;;;;24.58;12.80;;;;;;;13.53;30.57;95603.34;4941033;29;20078;-91
2022/03/23 13:49:11;;;;;;;21.98;12.15;;;;;;;13.86;31.06;95600.63;4924690;29;20353;-92
2022/03/23 13:51:43;;;;;;;32.88;12.85;;;;;;;13.98;30.16;95593.28;4909068;29;20050;-91
2022/03/23 13:54:19;;;;;;;28.40;13.50;;;;;;;14.10;29.22;95605.44;4924745;29;20070;-91
2022/03/23 13:56:47;;;;;;;23.58;12.30;;;;;;;13.92;30.07;95586.44;4924520;29;20043;-91
2022/03/23 13:59:17;;;;;;;24.33;12.15;;;;;;;14.04;31.28;95588.84;4940552;29;20036;-90
2022/03/23 14:01:45;;;;;;;25.05;13.25;;;;;;;14.10;29.06;95589.63;4939959;29;20031;-92
2022/03/23 14:04:12;;;;;;;23.88;12.40;;;;;;;14.69;31.11;95579.72;4921074;29;20034;-91
2022/03/23 14:06:46;;;;;;;19.77;11.70;;;;;;;14.63;29.26;95575.47;4927574;29;20031;-91
2022/03/23 14:09:24;;;;;;;;;;;;;;;14.78;28.73;95570.25;4927965;29;20042;-91
2022/03/23 14:14:20;;;;;;;25.77;12.60;;;;;;;14.23;29.57;95570.69;4942958;29;20031;-90
2022/03/23 14:17:08;;;;;;;23.67;12.88;;;;;;;14.49;29.38;95562.03;4927360;29;20408;-91
2022/03/23 14:19:41;;;;;;;20.70;12.20;;;;;;;14.11;30.51;95559.59;4958712;28;20027;-90
2022/03/23 14:22:12;;;;;;;27.75;13.30;;;;;;;14.10;29.15;95561.44;4948770;29;20035;-90
2022/03/23 14:24:38;;;;;;;26.15;12.65;;;;;;;14.62;30.16;95552.81;4942938;29;20038;-90
2022/03/23 14:27:15;;;;;;;25.20;13.50;;;;;;;14.56;29.42;95565.19;4942723;29;20433;-90
2022/03/23 14:29:42;;;;;;;22.35;13.30;;;;;;;14.22;29.02;95552.50;4942655;29;20034;-90
2022/03/23 14:32:12;;;;;;;22.45;12.73;;;;;;;13.87;29.18;95557.41;4942995;29;20027;-91
2022/03/23 14:34:38;;;;;;;21.92;12.38;;;;;;;14.38;28.84;95550.69;4939356;29;20035;-91
2022/03/23 14:37:09;;;;;;;21.80;12.38;;;;;;;14.18;28.85;95552.22;4917828;29;20345;-91
2022/03/23 14:39:45;;;;;;;24.67;13.68;;;;;;;14.29;28.26;95547.78;4939584;29;20034;-90
2022/03/23 14:42:13;;;;;;;23.15;13.07;;;;;;;14.55;28.63;95545.16;4942345;29;20456;-91
2022/03/23 14:44:42;;;;;;;23.75;13.02;;;;;;;14.41;28.54;95547.53;4927112;29;20325;-91
2022/03/23 14:47:08;;;;;;;20.38;13.05;;;;;;;14.19;29.33;95538.00;4926805;29;20126;-91
2022/03/23 14:49:41;;;;;;;21.45;13.15;;;;;;;14.33;28.61;95540.13;4942611;29;20340;-90
2022/03/23 14:52:08;;;;;;;23.15;14.15;;;;;;;14.08;29.15;95533.78;4941963;29;20039;-91
2022/03/23 14:54:39;;;;;;;21.98;12.48;;;;;;;14.60;31.02;95533.81;4914712;29;20330;-90
2022/03/23 14:57:08;;;;;;;26.60;13.73;;;;;;;14.77;28.52;95529.09;4934360;29;20037;-90
2022/03/23 14:59:44;;;;;;;24.20;12.98;;;;;;;15.02;28.32;95529.34;4926524;29;20055;-90
2022/03/23 15:02:14;;;;;;;23.98;12.73;;;;;;;15.54;27.92;95525.50;4943459;29;20098;-91
2022/03/23 15:04:41;;;;;;;23.80;13.15;;;;;;;16.09;26.59;95529.25;4926689;29;20037;-90
2022/03/23 15:15:43;;;;;;;23.60;14.70;;;;;;;16.15;26.81;95514.94;4941175;29;20042;-91
2022/03/23 15:18:09;;;;;;;23.30;14.25;;;;;;;16.70;26.52;95518.50;4927074;29;20039;-92
2022/03/23 15:20:36;;;;;;;24.45;13.95;;;;;;;17.63;26.05;95520.25;4925828;29;20094;-91